Time;durP1;ratioP1;P1;durP2;ratioP2;P2;SDS_P1;SDS_P2;PMS_P1;PMS_P2;Temp;Humidity;BMP_temperature;BMP_pressure;BME280_temperature;BME280_humidity;BME280_pressure;Samples;Min_cycle;Max_cycle;Signal;HPM_P1;HPM_P2
2023/08/04 00:00:12;;;;;;;9.45;3.03;;;17.30;99.90;;;;;;4952812;28;20033;-79
2023/08/04 00:02:38;;;;;;;9.45;2.80;;;17.30;99.90;;;;;;4926180;29;20431;-79
2023/08/04 00:05:06;;;;;;;17.95;3.17;;;17.30;99.90;;;;;;4933649;28;20029;-79
2023/08/04 00:07:33;;;;;;;18.60;3.45;;;17.30;99.90;;;;;;4932694;29;20038;-79
2023/08/04 00:10:01;;;;;;;8.18;2.90;;;17.30;99.90;;;;;;4932243;29;20035;-79
2023/08/04 00:12:27;;;;;;;11.40;3.25;;;17.20;99.90;;;;;;4948031;28;20045;-79
2023/08/04 00:14:52;;;;;;;11.35;2.97;;;17.20;99.90;;;;;;4951231;28;20049;-79
2023/08/04 00:17:18;;;;;;;7.32;2.72;;;17.10;99.90;;;;;;4954096;28;20027;-82
2023/08/04 00:19:44;;;;;;;10.30;2.70;;;17.20;99.90;;;;;;4932914;28;20027;-79
2023/08/04 00:22:10;;;;;;;16.05;3.55;;;17.10;99.90;;;;;;4933656;29;20026;-79
2023/08/04 00:24:35;;;;;;;14.63;3.25;;;17.10;99.90;;;;;;4949169;28;20027;-91
2023/08/04 00:27:02;;;;;;;11.65;3.42;;;17.10;99.90;;;;;;4950096;28;20050;-79
2023/08/04 00:29:30;;;;;;;11.77;2.90;;;17.00;99.90;;;;;;4948435;28;20038;-79
2023/08/04 00:31:56;;;;;;;11.40;3.60;;;17.00;99.90;;;;;;4949498;28;20110;-79
2023/08/04 00:34:22;;;;;;;10.57;3.33;;;17.00;99.90;;;;;;4950329;28;20110;-78
2023/08/04 00:36:47;;;;;;;10.65;3.22;;;17.10;99.90;;;;;;4946111;28;20037;-79
2023/08/04 00:39:16;;;;;;;13.45;3.13;;;17.10;99.90;;;;;;4951233;28;20034;-78
2023/08/04 00:41:42;;;;;;;14.57;3.55;;;17.10;99.90;;;;;;4948399;28;20023;-80
2023/08/04 00:44:08;;;;;;;11.60;3.20;;;17.10;99.90;;;;;;4952339;28;20020;-79
2023/08/04 00:46:35;;;;;;;13.55;3.53;;;17.10;99.90;;;;;;4949781;28;20387;-91
2023/08/04 00:49:01;;;;;;;13.77;3.90;;;17.00;99.90;;;;;;4938190;29;20034;-90
2023/08/04 00:51:40;;;;;;;17.15;3.70;;;17.00;99.90;;;;;;4955984;28;20028;-94
2023/08/04 00:54:07;;;;;;;16.75;3.50;;;17.00;99.90;;;;;;4935775;28;20652;-79
2023/08/04 00:56:33;;;;;;;8.48;3.28;;;17.00;99.90;;;;;;4933086;28;20419;-79
2023/08/04 00:58:59;;;;;;;17.60;3.78;;;17.00;99.90;;;;;;4930241;29;20130;-90
2023/08/04 01:01:24;;;;;;;14.38;3.90;;;16.90;99.90;;;;;;4935091;28;20109;-79
2023/08/04 01:03:51;;;;;;;12.68;3.55;;;17.00;99.90;;;;;;4948839;28;20033;-79
2023/08/04 01:07:04;;;;;;;18.17;4.18;;;17.00;99.90;;;;;;4932480;28;20031;-79
2023/08/04 01:09:36;;;;;;;11.25;3.85;;;17.00;99.90;;;;;;4930800;28;20093;-78
2023/08/04 01:12:15;;;;;;;24.65;4.63;;;16.90;99.90;;;;;;4936937;28;20039;-79
2023/08/04 01:14:43;;;;;;;13.98;3.83;;;16.90;99.90;;;;;;4948689;28;20043;-79
2023/08/04 01:17:28;;;;;;;13.13;3.97;;;16.90;99.90;;;;;;4930402;28;20024;-78
2023/08/04 01:19:54;;;;;;;22.60;3.85;;;17.00;99.90;;;;;;4953252;28;20030;-92
2023/08/04 01:22:21;;;;;;;16.02;4.57;;;16.80;99.90;;;;;;4961315;28;20019;-79
2023/08/04 01:24:51;;;;;;;12.07;4.25;;;16.80;99.90;;;;;;4930062;29;20028;-79
2023/08/04 01:27:45;;;;;;;11.85;3.75;;;16.90;99.90;;;;;;4948104;28;20024;-79
2023/08/04 01:30:17;;;;;;;6.25;4.18;;;16.90;99.90;;;;;;4931879;29;20107;-78
2023/08/04 01:32:43;;;;;;;13.82;4.50;;;16.90;99.90;;;;;;4951051;28;20391;-79
2023/08/04 01:35:09;;;;;;;13.32;4.80;;;17.00;99.90;;;;;;4953069;28;20034;-78
2023/08/04 01:37:35;;;;;;;16.63;4.72;;;16.90;99.90;;;;;;4952644;28;20499;-79
2023/08/04 01:40:01;;;;;;;11.25;4.10;;;16.90;99.90;;;;;;4948682;28;20048;-79
2023/08/04 01:42:29;;;;;;;10.73;4.70;;;16.80;99.90;;;;;;4935346;29;20118;-79
2023/08/04 01:44:54;;;;;;;13.20;3.80;;;16.90;99.90;;;;;;4956345;28;20031;-78
2023/08/04 01:47:20;;;;;;;18.77;4.47;;;16.80;99.90;;;;;;4949170;28;20050;-79
2023/08/04 01:49:45;;;;;;;14.07;4.38;;;16.70;99.90;;;;;;4934154;28;20383;-79
2023/08/04 01:52:11;;;;;;;11.45;4.63;;;16.70;99.90;;;;;;4953128;28;20035;-79
2023/08/04 01:54:39;;;;;;;12.77;4.03;;;16.80;99.90;;;;;;4953072;28;20058;-78
2023/08/04 01:57:05;;;;;;;7.95;4.10;;;16.80;99.90;;;;;;4952276;28;20035;-79
2023/08/04 01:59:30;;;;;;;13.90;5.25;;;16.80;99.90;;;;;;4955740;28;20030;-91
2023/08/04 02:01:56;;;;;;;16.65;4.57;;;16.70;99.90;;;;;;4939808;28;20067;-90
2023/08/04 02:04:24;;;;;;;13.15;4.63;;;16.70;99.90;;;;;;4954795;28;20020;-79
2023/08/04 02:06:49;;;;;;;14.80;4.75;;;16.60;99.90;;;;;;4933395;29;20020;-78
2023/08/04 02:09:15;;;;;;;12.13;4.72;;;16.50;99.90;;;;;;4953176;28;20046;-79
2023/08/04 02:11:43;;;;;;;15.45;4.20;;;16.60;99.90;;;;;;4949691;28;20550;-79
2023/08/04 02:14:09;;;;;;;15.35;4.93;;;16.70;99.90;;;;;;4966926;28;20019;-80
2023/08/04 02:19:12;;;;;;;15.60;4.43;;;16.80;99.90;;;;;;5027884;23;20131;-90
2023/08/04 02:21:37;;;;;;;13.75;3.92;;;16.80;99.90;;;;;;4962152;28;20031;-93
2023/08/04 02:24:03;;;;;;;15.65;5.70;;;16.80;99.90;;;;;;4946220;28;20022;-91
2023/08/04 02:26:30;;;;;;;14.15;5.00;;;16.80;99.90;;;;;;4944414;28;20134;-84
2023/08/04 02:28:56;;;;;;;10.98;4.40;;;16.90;99.90;;;;;;4943808;28;20818;-80
2023/08/04 02:31:26;;;;;;;14.13;5.25;;;16.90;99.90;;;;;;4954883;28;20517;-80
2023/08/04 02:33:53;;;;;;;14.15;4.63;;;16.90;99.90;;;;;;4939733;28;20078;-81
2023/08/04 02:36:22;;;;;;;14.07;5.00;;;16.90;99.90;;;;;;4943072;28;20027;-81
2023/08/04 02:38:48;;;;;;;12.93;4.63;;;16.90;99.90;;;;;;4944137;28;20042;-80
2023/08/04 02:41:13;;;;;;;24.10;4.60;;;16.90;99.90;;;;;;4952890;28;21077;-78
2023/08/04 02:43:39;;;;;;;16.33;4.50;;;16.90;99.90;;;;;;4955251;28;20022;-79
2023/08/04 02:46:04;;;;;;;14.73;5.05;;;16.70;99.90;;;;;;4957410;28;20597;-84
2023/08/04 02:48:33;;;;;;;16.63;4.65;;;16.70;99.90;;;;;;4958635;28;20412;-78
2023/08/04 02:51:09;;;;;;;18.20;5.10;;;16.70;99.90;;;;;;4955896;28;20121;-81
2023/08/04 02:53:36;;;;;;;14.38;5.13;;;16.60;99.90;;;;;;4960813;28;20046;-92
2023/08/04 02:56:09;;;;;;;15.90;4.85;;;16.70;99.90;;;;;;4941862;28;20058;-78
2023/08/04 02:58:35;;;;;;;11.15;5.00;;;16.60;99.90;;;;;;4939167;28;20027;-80
2023/08/04 03:01:00;;;;;;;13.07;4.43;;;16.70;99.90;;;;;;4960037;28;20033;-94
2023/08/04 03:03:26;;;;;;;12.85;4.90;;;16.90;99.90;;;;;;4963916;28;20821;-91
2023/08/04 03:05:54;;;;;;;14.55;5.20;;;16.90;99.90;;;;;;4945729;28;20369;-80
2023/08/04 03:08:22;;;;;;;15.30;5.38;;;16.90;99.90;;;;;;4954007;28;20402;-78
2023/08/04 03:10:47;;;;;;;10.68;4.60;;;17.00;99.90;;;;;;4963199;28;20439;-80
2023/08/04 03:13:13;;;;;;;15.57;4.70;;;17.00;99.90;;;;;;4943748;28;20047;-94
2023/08/04 03:15:38;;;;;;;11.40;4.53;;;17.00;99.90;;;;;;4952670;28;20035;-93
2023/08/04 03:18:04;;;;;;;14.25;5.25;;;17.00;99.90;;;;;;4945483;28;20050;-94
2023/08/04 03:20:34;;;;;;;17.95;5.60;;;17.00;99.90;;;;;;4946728;28;20464;-91
2023/08/04 03:23:03;;;;;;;12.05;4.80;;;17.00;99.90;;;;;;4944225;28;20027;-78
2023/08/04 03:25:31;;;;;;;19.38;5.53;;;16.90;99.90;;;;;;4942839;28;20019;-91
2023/08/04 03:27:57;;;;;;;13.20;6.00;;;16.90;99.90;;;;;;4944807;28;20031;-92
2023/08/04 03:30:22;;;;;;;14.85;5.55;;;16.90;99.90;;;;;;4943846;28;20093;-90
2023/08/04 03:32:48;;;;;;;14.45;5.15;;;16.80;99.90;;;;;;4959851;28;20546;-79
2023/08/04 03:35:14;;;;;;;16.38;5.47;;;16.80;99.90;;;;;;4947110;28;20030;-91
2023/08/04 03:37:40;;;;;;;14.30;4.95;;;16.80;99.90;;;;;;4964867;28;20026;-78
2023/08/04 03:40:07;;;;;;;10.95;5.07;;;16.80;99.90;;;;;;4934583;28;20031;-79
2023/08/04 03:42:39;;;;;;;12.88;6.13;;;16.80;99.90;;;;;;4939781;28;20082;-78
2023/08/04 03:45:06;;;;;;;15.35;5.45;;;16.90;99.90;;;;;;4952555;28;20027;-78
2023/08/04 03:47:36;;;;;;;25.45;5.97;;;16.80;99.90;;;;;;4952658;28;20031;-79
2023/08/04 03:50:03;;;;;;;17.83;6.32;;;16.70;99.90;;;;;;4946900;28;20643;-78
2023/08/04 03:52:28;;;;;;;17.38;6.05;;;16.80;99.90;;;;;;4936528;28;20054;-79
2023/08/04 03:54:54;;;;;;;19.17;5.85;;;16.80;99.90;;;;;;4939651;28;20023;-79
2023/08/04 03:57:20;;;;;;;15.88;5.70;;;16.80;99.90;;;;;;4933547;28;20030;-80
2023/08/04 03:59:45;;;;;;;21.27;5.80;;;16.80;99.90;;;;;;4941144;28;20125;-91
2023/08/04 04:02:13;;;;;;;17.08;5.05;;;16.90;99.90;;;;;;4942679;28;20109;-79
2023/08/04 04:04:39;;;;;;;21.50;5.25;;;16.90;99.90;;;;;;4934737;28;20110;-91
2023/08/04 04:07:05;;;;;;;15.68;5.55;;;16.80;99.90;;;;;;4942340;28;20880;-91
2023/08/04 04:09:31;;;;;;;17.17;5.32;;;16.80;99.90;;;;;;4939726;28;20062;-91
2023/08/04 04:11:56;;;;;;;17.25;5.97;;;16.80;99.90;;;;;;4947191;28;20389;-92
2023/08/04 04:14:24;;;;;;;15.25;5.18;;;16.80;99.90;;;;;;4965045;28;20019;-90
2023/08/04 04:16:50;;;;;;;20.23;5.72;;;16.80;99.90;;;;;;4956976;28;20027;-79
2023/08/04 04:19:15;;;;;;;17.95;5.35;;;16.80;99.90;;;;;;4960350;28;20030;-78
2023/08/04 04:21:48;;;;;;;11.25;6.00;;;16.80;99.90;;;;;;4952830;28;20065;-91
2023/08/04 04:24:13;;;;;;;;;;;16.80;99.90;;;;;;4955358;28;20027;-92
2023/08/04 04:26:39;;;;;;;17.77;5.55;;;16.80;99.90;;;;;;4961813;28;19913;-93
2023/08/04 04:29:05;;;;;;;15.40;5.45;;;16.80;99.90;;;;;;4959464;28;20302;-92
2023/08/04 04:31:33;;;;;;;18.63;5.53;;;16.80;99.90;;;;;;4967058;28;20027;-90
2023/08/04 04:34:03;;;;;;;14.30;4.78;;;16.70;99.90;;;;;;4947918;28;20027;-90
2023/08/04 04:36:29;;;;;;;18.75;5.95;;;16.80;99.90;;;;;;4958736;28;20028;-89
2023/08/04 04:38:54;;;;;;;20.45;5.82;;;16.80;99.90;;;;;;4960419;28;20091;-91
2023/08/04 04:41:22;;;;;;;22.15;5.35;;;16.70;99.90;;;;;;4960257;28;20033;-90
2023/08/04 04:43:48;;;;;;;17.83;5.53;;;16.60;99.90;;;;;;4958842;28;20053;-91
2023/08/04 04:46:14;;;;;;;19.50;5.85;;;16.60;99.90;;;;;;4950235;28;20031;-92
2023/08/04 04:48:41;;;;;;;18.20;5.82;;;16.50;99.90;;;;;;4943483;28;20388;-80
2023/08/04 04:51:09;;;;;;;12.52;5.15;;;16.50;99.90;;;;;;4951418;28;20035;-94
2023/08/04 04:53:34;;;;;;;13.85;5.00;;;16.60;99.90;;;;;;4951818;28;20039;-78
2023/08/04 04:56:00;;;;;;;20.23;5.32;;;16.60;99.90;;;;;;4941403;28;20026;-91
2023/08/04 04:58:26;;;;;;;15.52;5.50;;;16.60;99.90;;;;;;4960119;28;20059;-93
2023/08/04 05:00:51;;;;;;;9.48;5.30;;;16.60;99.90;;;;;;4948664;28;20028;-92
2023/08/04 05:03:17;;;;;;;17.23;5.40;;;16.60;99.90;;;;;;4961284;28;20030;-94
2023/08/04 05:05:45;;;;;;;15.80;5.45;;;16.60;99.90;;;;;;4959365;28;20124;-92
2023/08/04 05:08:10;;;;;;;15.07;5.28;;;16.70;99.90;;;;;;4977273;28;20689;-87
2023/08/04 05:10:36;;;;;;;14.70;5.47;;;16.90;99.90;;;;;;4963949;28;20019;-93
2023/08/04 05:13:02;;;;;;;13.65;4.93;;;16.90;99.90;;;;;;4963046;28;20023;-79
2023/08/04 05:15:27;;;;;;;24.27;5.90;;;16.90;99.90;;;;;;4955879;28;20066;-80
2023/08/04 05:17:53;;;;;;;15.10;5.38;;;16.80;99.90;;;;;;4942722;28;20087;-80
2023/08/04 05:20:19;;;;;;;28.75;5.72;;;16.90;99.90;;;;;;4957006;28;20073;-81
2023/08/04 05:22:44;;;;;;;15.18;5.95;;;16.80;99.90;;;;;;4959479;28;20060;-81
2023/08/04 05:25:12;;;;;;;10.60;5.00;;;16.90;99.90;;;;;;4944007;28;20035;-83
2023/08/04 05:27:38;;;;;;;20.80;5.82;;;17.00;99.90;;;;;;4957193;28;20058;-81
2023/08/04 05:30:04;;;;;;;20.48;5.65;;;17.10;99.90;;;;;;4956860;28;20069;-80
2023/08/04 05:32:29;;;;;;;17.48;5.28;;;17.10;99.90;;;;;;4945907;28;20030;-80
2023/08/04 05:34:55;;;;;;;14.95;5.57;;;17.20;99.90;;;;;;4955763;28;20431;-81
2023/08/04 05:37:23;;;;;;;18.20;6.65;;;17.20;99.90;;;;;;4955842;28;20038;-79
2023/08/04 05:39:51;;;;;;;17.08;6.03;;;17.20;99.90;;;;;;4958214;28;20027;-80
2023/08/04 05:42:16;;;;;;;16.40;5.53;;;17.10;99.90;;;;;;4957720;28;20479;-80
2023/08/04 05:44:45;;;;;;;22.35;6.38;;;17.10;99.90;;;;;;4954839;28;20099;-80
2023/08/04 05:47:12;;;;;;;22.52;6.82;;;17.20;99.90;;;;;;4948183;28;20031;-81
2023/08/04 05:49:38;;;;;;;19.20;6.45;;;17.20;99.90;;;;;;4953999;28;20039;-80
2023/08/04 05:52:06;;;;;;;18.90;7.20;;;17.30;99.90;;;;;;4959599;28;20019;-80
2023/08/04 05:54:31;;;;;;;18.38;6.47;;;17.40;99.90;;;;;;4956489;28;20035;-80
2023/08/04 05:56:57;;;;;;;23.30;6.32;;;17.40;99.90;;;;;;4939731;28;20023;-80
2023/08/04 05:59:25;;;;;;;21.58;6.75;;;17.40;99.90;;;;;;4959245;28;20027;-80
2023/08/04 06:01:56;;;;;;;15.70;5.75;;;17.50;99.90;;;;;;4944210;28;20034;-81
2023/08/04 06:04:26;;;;;;;17.55;5.85;;;17.70;99.90;;;;;;5073057;23;20146;-79
2023/08/04 06:06:52;;;;;;;16.63;6.03;;;17.70;99.90;;;;;;4957213;28;20055;-79
2023/08/04 06:09:20;;;;;;;23.83;6.20;;;17.80;99.90;;;;;;4943544;28;20074;-79
2023/08/04 06:11:46;;;;;;;20.17;5.95;;;17.80;99.90;;;;;;4937140;28;20035;-92
2023/08/04 06:14:11;;;;;;;15.65;6.05;;;17.80;99.90;;;;;;4963256;28;20042;-89
2023/08/04 06:16:37;;;;;;;16.50;6.50;;;17.80;99.90;;;;;;4950268;28;20428;-78
2023/08/04 06:19:03;;;;;;;16.65;7.38;;;17.90;99.90;;;;;;4943708;28;20038;-78
2023/08/04 06:21:29;;;;;;;18.90;6.05;;;17.80;99.90;;;;;;4958035;28;20538;-79
2023/08/04 06:23:55;;;;;;;15.57;6.22;;;18.00;99.90;;;;;;4945758;28;20035;-91
2023/08/04 06:26:23;;;;;;;20.35;7.22;;;18.10;99.90;;;;;;4964983;28;20498;-90
2023/08/04 06:28:49;;;;;;;18.73;5.70;;;18.00;99.90;;;;;;4943167;28;20094;-90
2023/08/04 06:31:14;;;;;;;13.25;5.93;;;18.10;99.90;;;;;;4962113;28;20103;-90
2023/08/04 06:33:40;;;;;;;13.40;5.90;;;18.00;99.90;;;;;;4941120;28;20814;-90
2023/08/04 06:36:06;;;;;;;11.50;5.40;;;18.10;99.90;;;;;;4947919;28;20113;-89
2023/08/04 06:38:31;;;;;;;21.98;6.15;;;18.20;99.90;;;;;;4945794;28;20062;-79
2023/08/04 06:40:59;;;;;;;20.75;5.70;;;18.10;99.90;;;;;;4941375;28;20066;-79
2023/08/04 06:43:25;;;;;;;17.83;5.22;;;18.20;99.90;;;;;;4948448;28;20033;-81
2023/08/04 06:45:50;;;;;;;19.13;5.55;;;18.30;99.90;;;;;;4959850;28;20020;-79
2023/08/04 06:48:23;;;;;;;13.32;5.30;;;18.50;99.90;;;;;;4950543;28;20031;-79
2023/08/04 06:50:49;;;;;;;17.67;4.82;;;18.60;99.90;;;;;;4956746;28;20483;-79
2023/08/04 06:53:14;;;;;;;11.07;4.80;;;18.60;99.90;;;;;;4942408;28;20057;-79
2023/08/04 06:55:40;;;;;;;18.38;5.05;;;18.70;99.90;;;;;;4942012;28;20023;-79
2023/08/04 06:58:06;;;;;;;12.38;4.97;;;18.80;99.90;;;;;;4936114;28;20050;-79
2023/08/04 07:00:31;;;;;;;16.38;5.93;;;18.90;99.90;;;;;;4957709;28;20054;-79
2023/08/04 07:02:57;;;;;;;13.70;5.10;;;18.90;99.90;;;;;;4939761;28;20045;-78
2023/08/04 07:05:22;;;;;;;19.60;4.78;;;18.90;99.90;;;;;;4960941;28;20031;-79
2023/08/04 07:07:51;;;;;;;11.85;4.38;;;18.90;99.90;;;;;;4946282;28;20038;-78
2023/08/04 07:10:19;;;;;;;10.00;4.45;;;18.90;99.90;;;;;;4960268;28;20153;-79
2023/08/04 07:12:45;;;;;;;15.10;4.68;;;18.80;99.90;;;;;;4955351;28;20023;-79
2023/08/04 07:15:10;;;;;;;15.98;3.90;;;18.90;99.90;;;;;;4936801;28;20432;-78
2023/08/04 07:17:36;;;;;;;11.25;3.13;;;19.00;99.90;;;;;;4940555;28;20027;-79
2023/08/04 07:20:02;;;;;;;8.63;3.75;;;19.00;99.90;;;;;;4962264;28;20059;-90
2023/08/04 07:22:28;;;;;;;8.57;3.67;;;19.10;99.90;;;;;;4953450;28;20039;-95
2023/08/04 07:24:57;;;;;;;12.15;3.05;;;19.10;99.90;;;;;;4955046;28;20027;-95
2023/08/04 07:27:22;;;;;;;7.72;3.30;;;19.20;99.90;;;;;;4945090;28;20145;-94
2023/08/04 07:29:48;;;;;;;10.35;2.92;;;19.30;99.90;;;;;;4950268;28;20031;-78
2023/08/04 07:32:14;;;;;;;6.07;2.85;;;19.20;99.90;;;;;;4960623;28;20028;-89
2023/08/04 07:37:15;;;;;;;8.35;2.70;;;19.30;99.90;;;;;;4951973;28;20055;-92
2023/08/04 07:39:40;;;;;;;6.80;2.50;;;19.20;99.90;;;;;;4938073;28;20037;-94
2023/08/04 07:42:06;;;;;;;7.70;2.67;;;19.00;99.90;;;;;;4947760;28;20038;-93
2023/08/04 07:44:34;;;;;;;5.38;2.47;;;19.10;99.90;;;;;;4933588;28;20035;-94
2023/08/04 07:46:59;;;;;;;10.48;2.55;;;19.20;99.90;;;;;;4929768;29;20042;-90
2023/08/04 07:49:25;;;;;;;4.53;2.55;;;19.20;99.90;;;;;;4944641;28;20028;-92
2023/08/04 07:51:51;;;;;;;6.07;2.38;;;19.40;99.90;;;;;;4951481;28;20433;-88
2023/08/04 07:54:16;;;;;;;3.28;2.03;;;19.40;99.90;;;;;;4931364;29;20030;-95
2023/08/04 07:56:42;;;;;;;8.32;2.97;;;19.40;99.90;;;;;;4935820;28;20027;-93
2023/08/04 07:59:08;;;;;;;5.80;2.97;;;19.50;99.90;;;;;;4946882;28;20499;-94
2023/08/04 08:01:33;;;;;;;6.68;2.45;;;19.60;99.90;;;;;;4951105;28;20028;-93
2023/08/04 08:03:59;;;;;;;7.13;2.67;;;19.40;99.90;;;;;;4944232;29;20030;-95
2023/08/04 08:06:25;;;;;;;4.97;2.72;;;19.10;99.90;;;;;;4944552;28;20038;-93
2023/08/04 08:08:51;;;;;;;8.48;2.97;;;19.10;99.90;;;;;;4937088;29;20023;-95
2023/08/04 08:11:17;;;;;;;11.35;2.40;;;19.20;99.90;;;;;;4942240;29;20032;-95
2023/08/04 08:13:42;;;;;;;3.10;2.13;;;19.40;99.90;;;;;;4954585;28;20054;-92
2023/08/04 08:16:14;;;;;;;5.93;2.78;;;19.70;99.90;;;;;;4946963;28;20051;-95
2023/08/04 08:18:41;;;;;;;5.75;2.42;;;19.80;99.90;;;;;;4937052;28;20102;-95
2023/08/04 08:21:07;;;;;;;2.97;2.08;;;19.70;99.90;;;;;;4943422;28;20016;-91
2023/08/04 08:23:34;;;;;;;4.45;2.22;;;19.90;99.90;;;;;;4931136;28;20538;-95
2023/08/04 08:26:00;;;;;;;6.75;2.10;;;19.90;99.90;;;;;;4931044;29;20116;-94
2023/08/04 08:28:26;;;;;;;6.05;2.42;;;20.00;99.90;;;;;;4934710;28;20019;-93
2023/08/04 08:30:51;;;;;;;6.82;2.03;;;20.00;99.90;;;;;;4929864;28;20078;-94
2023/08/04 08:33:17;;;;;;;9.63;4.15;;;20.20;99.70;;;;;;4946602;28;20031;-94
2023/08/04 08:35:43;;;;;;;4.50;2.10;;;20.00;99.90;;;;;;4949758;28;20032;-93
2023/08/04 08:38:08;;;;;;;8.63;1.88;;;20.00;99.90;;;;;;4948589;28;20019;-87
2023/08/04 08:40:34;;;;;;;5.00;2.35;;;20.20;99.70;;;;;;4960492;28;20040;-93
2023/08/04 08:43:00;;;;;;;11.25;3.33;;;20.40;99.40;;;;;;4937617;29;20023;-94
2023/08/04 08:45:31;;;;;;;5.50;2.58;;;20.40;99.40;;;;;;4934937;29;20039;-94
2023/08/04 08:47:57;;;;;;;12.25;2.63;;;20.50;99.70;;;;;;4953948;28;20024;-89
2023/08/04 08:50:24;;;;;;;3.88;2.08;;;20.50;99.10;;;;;;4946130;28;20483;-92
2023/08/04 08:52:58;;;;;;;5.72;2.00;;;20.60;99.90;;;;;;4957901;28;20114;-91
2023/08/04 08:55:28;;;;;;;5.65;2.17;;;20.90;99.30;;;;;;4961192;28;20012;-92
2023/08/04 08:57:56;;;;;;;4.07;2.15;;;21.00;98.90;;;;;;4941077;29;20039;-92
2023/08/04 09:00:22;;;;;;;4.30;1.90;;;21.00;98.80;;;;;;4958141;28;20632;-92
2023/08/04 09:02:48;;;;;;;3.05;1.98;;;21.20;98.50;;;;;;4937366;29;20118;-92
2023/08/04 09:05:14;;;;;;;13.13;2.40;;;20.90;98.70;;;;;;4945931;28;20039;-93
2023/08/04 09:07:40;;;;;;;2.50;2.13;;;21.00;98.10;;;;;;4948914;28;20039;-95
2023/08/04 09:10:08;;;;;;;7.55;2.85;;;21.30;98.90;;;;;;4947258;29;20036;-90
2023/08/04 09:12:35;;;;;;;8.98;2.40;;;21.60;97.00;;;;;;4954133;28;20026;-94
2023/08/04 09:15:04;;;;;;;6.45;1.48;;;22.00;97.50;;;;;;4936631;29;20067;-96
2023/08/04 09:17:30;;;;;;;7.70;2.20;;;22.10;96.40;;;;;;4926988;29;20027;-95
2023/08/04 09:19:56;;;;;;;4.88;2.10;;;22.50;96.20;;;;;;4928313;28;20135;-91
2023/08/04 09:22:24;;;;;;;5.20;2.05;;;22.60;96.20;;;;;;4926742;29;20107;-92
2023/08/04 09:24:53;;;;;;;2.33;2.05;;;22.50;95.00;;;;;;4926218;29;20471;-94
2023/08/04 09:27:33;;;;;;;3.22;2.03;;;22.30;95.30;;;;;;4947016;28;20039;-92
2023/08/04 09:30:03;;;;;;;5.53;2.15;;;22.20;95.50;;;;;;4920984;28;20043;-91
2023/08/04 09:32:29;;;;;;;5.10;2.05;;;22.20;95.80;;;;;;4934723;29;20039;-92
2023/08/04 09:35:08;;;;;;;5.35;2.20;;;22.10;95.70;;;;;;4931389;29;20027;-91
2023/08/04 09:37:38;;;;;;;4.45;2.15;;;22.10;95.50;;;;;;4935266;28;20035;-90
2023/08/04 09:40:14;;;;;;;6.47;2.58;;;22.20;95.20;;;;;;4932667;29;20070;-90
2023/08/04 09:42:42;;;;;;;6.25;2.08;;;22.40;95.70;;;;;;4949948;28;21423;-92
2023/08/04 09:45:12;;;;;;;11.60;2.50;;;22.60;94.10;;;;;;4935529;29;20051;-91
2023/08/04 09:47:38;;;;;;;7.05;2.30;;;22.90;94.00;;;;;;4926053;28;20031;-83
2023/08/04 09:50:10;;;;;;;6.03;2.50;;;22.80;94.50;;;;;;4933542;28;20039;-81
2023/08/04 09:52:36;;;;;;;6.72;2.50;;;22.90;94.30;;;;;;4940576;28;20133;-80
2023/08/04 09:55:01;;;;;;;3.15;1.73;;;22.90;94.30;;;;;;4941841;28;20800;-79
2023/08/04 09:57:27;;;;;;;3.85;1.83;;;23.10;93.70;;;;;;4938402;28;20041;-80
2023/08/04 09:59:53;;;;;;;4.35;2.08;;;23.10;94.80;;;;;;4941233;28;20035;-80
2023/08/04 10:02:19;;;;;;;3.70;2.10;;;23.50;93.40;;;;;;4938230;28;20035;-80
2023/08/04 10:04:51;;;;;;;6.97;2.65;;;24.00;92.10;;;;;;4931208;28;20024;-80
2023/08/04 10:07:18;;;;;;;4.15;2.28;;;24.10;91.60;;;;;;4938210;28;20030;-80
2023/08/04 10:09:49;;;;;;;4.35;2.58;;;24.30;91.70;;;;;;4941930;28;20043;-80
2023/08/04 10:12:16;;;;;;;3.88;2.60;;;24.60;90.80;;;;;;4934826;28;20023;-80
2023/08/04 10:14:43;;;;;;;8.35;2.38;;;24.70;90.90;;;;;;4935874;28;20114;-79
2023/08/04 10:17:09;;;;;;;3.00;2.15;;;25.20;90.90;;;;;;4935683;28;20023;-79
2023/08/04 10:19:35;;;;;;;3.92;2.00;;;25.20;86.70;;;;;;4938542;28;20024;-79
2023/08/04 10:22:09;;;;;;;2.33;2.10;;;25.20;89.40;;;;;;4923377;28;20369;-80
2023/08/04 10:24:36;;;;;;;3.90;2.22;;;25.60;88.60;;;;;;4941838;28;20031;-79
2023/08/04 10:27:18;;;;;;;2.38;1.40;;;25.80;86.60;;;;;;4940939;28;20078;-80
2023/08/04 10:29:44;;;;;;;1.88;1.17;;;25.30;86.90;;;;;;4940154;28;20375;-80
2023/08/04 10:32:10;;;;;;;2.03;1.00;;;24.60;88.00;;;;;;4931058;28;20036;-80
2023/08/04 10:34:43;;;;;;;0.95;0.70;;;24.10;89.50;;;;;;4923330;29;20120;-79
2023/08/04 10:37:12;;;;;;;2.35;1.17;;;23.70;90.50;;;;;;4922031;29;20509;-79
2023/08/04 10:39:43;;;;;;;2.45;1.38;;;23.50;90.90;;;;;;4938298;28;20484;-80
2023/08/04 10:42:09;;;;;;;1.45;1.13;;;23.10;91.60;;;;;;4920346;29;20026;-79
2023/08/04 10:44:53;;;;;;;2.38;1.27;;;23.00;92.40;;;;;;4925505;28;20031;-80
2023/08/04 10:47:45;;;;;;;2.22;1.27;;;23.00;91.70;;;;;;4923190;29;20039;-79
2023/08/04 10:50:12;;;;;;;2.17;1.40;;;23.00;91.80;;;;;;4922826;29;20391;-80
2023/08/04 10:52:39;;;;;;;2.90;1.67;;;23.50;91.10;;;;;;4938621;29;20499;-79
2023/08/04 10:55:07;;;;;;;2.15;1.65;;;24.20;90.90;;;;;;4936171;28;20027;-80
2023/08/04 10:57:34;;;;;;;1.88;1.50;;;24.70;89.00;;;;;;4940691;28;20028;-78
2023/08/04 11:00:01;;;;;;;2.15;1.85;;;25.20;85.00;;;;;;4923397;29;20050;-80
2023/08/04 11:02:27;;;;;;;2.17;1.75;;;25.40;89.10;;;;;;4939129;28;20066;-79
2023/08/04 11:04:54;;;;;;;2.55;1.20;;;25.50;86.10;;;;;;4937508;28;20023;-79
2023/08/04 11:07:22;;;;;;;3.65;1.65;;;25.70;82.50;;;;;;4937027;28;20019;-79
2023/08/04 11:09:49;;;;;;;1.77;1.27;;;25.80;81.50;;;;;;4939688;28;20121;-79
2023/08/04 11:12:18;;;;;;;1.77;1.40;;;26.00;83.50;;;;;;4928109;28;20066;-80
2023/08/04 11:14:44;;;;;;;1.48;1.38;;;25.90;79.50;;;;;;4938941;28;20038;-79
2023/08/04 11:17:18;;;;;;;1.30;1.20;;;25.90;78.80;;;;;;4937981;28;20035;-79
2023/08/04 11:19:51;;;;;;;1.40;1.30;;;25.90;79.20;;;;;;4934108;28;20414;-80
2023/08/04 11:22:20;;;;;;;1.13;1.08;;;26.00;81.60;;;;;;4919941;29;20063;-79
2023/08/04 11:24:49;;;;;;;4.00;1.27;;;25.80;79.30;;;;;;4938160;28;20434;-80
2023/08/04 11:27:18;;;;;;;1.77;1.13;;;25.50;78.70;;;;;;4934462;28;20122;-79
2023/08/04 11:29:44;;;;;;;1.45;1.10;;;25.10;81.50;;;;;;4917504;29;20068;-79
2023/08/04 11:32:12;;;;;;;2.55;1.10;;;25.20;80.30;;;;;;4939325;28;20051;-79
2023/08/04 11:34:40;;;;;;;0.90;0.90;;;25.10;79.40;;;;;;4935544;28;20020;-78
2023/08/04 11:37:06;;;;;;;2.38;1.50;;;24.70;79.40;;;;;;4937232;28;20027;-79
2023/08/04 11:39:32;;;;;;;2.92;1.13;;;24.50;84.00;;;;;;4922195;28;20476;-79
2023/08/04 11:42:00;;;;;;;1.92;1.20;;;24.90;87.20;;;;;;4936300;28;20023;-80
2023/08/04 11:44:26;;;;;;;3.72;1.38;;;25.20;83.30;;;;;;4924718;28;20118;-79
2023/08/04 11:46:54;;;;;;;1.98;1.63;;;25.10;82.60;;;;;;4938711;28;20101;-80
2023/08/04 11:49:20;;;;;;;4.57;1.60;;;25.50;82.70;;;;;;4942700;28;20028;-78
2023/08/04 11:51:46;;;;;;;3.95;1.20;;;25.80;87.80;;;;;;4946067;28;20436;-80
2023/08/04 11:54:23;;;;;;;2.50;1.52;;;25.80;80.70;;;;;;4941791;28;20027;-79
2023/08/04 11:56:56;;;;;;;3.70;1.40;;;25.80;81.20;;;;;;4939645;28;20629;-78
2023/08/04 11:59:22;;;;;;;2.33;1.30;;;25.90;81.10;;;;;;4937395;28;20038;-79
2023/08/04 12:01:47;;;;;;;2.85;1.35;;;26.10;80.20;;;;;;4937501;28;20031;-79
2023/08/04 12:04:24;;;;;;;2.08;1.80;;;26.20;81.60;;;;;;4941375;28;20070;-79
2023/08/04 12:07:01;;;;;;;5.07;1.80;;;25.60;83.50;;;;;;4939042;28;20028;-79
2023/08/04 12:09:27;;;;;;;1.70;1.60;;;25.40;83.60;;;;;;4927134;29;20106;-79
2023/08/04 12:11:53;;;;;;;4.10;1.75;;;25.40;83.60;;;;;;4937580;28;20519;-78
2023/08/04 12:14:20;;;;;;;3.97;2.10;;;25.50;83.40;;;;;;4939150;29;20051;-80
2023/08/04 12:17:00;;;;;;;6.25;2.83;;;25.60;86.30;;;;;;4938985;28;20031;-78
2023/08/04 12:19:28;;;;;;;5.85;2.95;;;25.30;90.80;;;;;;4940345;28;20032;-78
2023/08/04 12:22:00;;;;;;;4.00;2.50;;;24.60;93.60;;;;;;4928176;28;20027;-78
2023/08/04 12:24:27;;;;;;;4.45;2.45;;;23.60;95.80;;;;;;4941128;28;20118;-78
2023/08/04 12:26:53;;;;;;;1.98;1.20;;;23.30;97.20;;;;;;4926940;29;20028;-79
2023/08/04 12:29:19;;;;;;;4.47;1.77;;;22.80;94.60;;;;;;4923062;28;20059;-78
2023/08/04 12:31:44;;;;;;;3.80;1.65;;;22.70;94.70;;;;;;4939554;28;20027;-82
2023/08/04 12:34:11;;;;;;;1.92;1.50;;;22.00;95.30;;;;;;4936379;28;20539;-79
2023/08/04 12:36:37;;;;;;;3.53;1.88;;;21.90;95.60;;;;;;4937986;28;20575;-79
2023/08/04 12:39:04;;;;;;;2.10;1.50;;;22.20;99.20;;;;;;4927747;28;20027;-80
2023/08/04 12:41:33;;;;;;;3.53;1.20;;;22.60;98.90;;;;;;4940695;28;20029;-80
2023/08/04 12:44:02;;;;;;;1.50;1.30;;;22.80;95.00;;;;;;4941439;28;20027;-79
2023/08/04 12:46:29;;;;;;;2.53;1.48;;;22.90;96.30;;;;;;4934523;28;20027;-79